Time;durP1;ratioP1;P1;durP2;ratioP2;P2;SDS_P1;SDS_P2;PMS_P1;PMS_P2;Temp;Humidity;BMP_temperature;BMP_pressure;BME280_temperature;BME280_humidity;BME280_pressure;Samples;Min_cycle;Max_cycle;Signal;HPM_P1;HPM_P2
2021/03/22 00:01:14;;;;;;;18.05;3.47;;;5.80;65.60;;;;;;4984467;28;20026;-65
2021/03/22 00:03:39;;;;;;;18.02;3.28;;;5.70;65.60;;;;;;4992573;28;20041;-65
2021/03/22 00:06:05;;;;;;;16.58;3.00;;;5.70;65.50;;;;;;4992627;28;20457;-65
2021/03/22 00:08:32;;;;;;;20.73;2.75;;;5.70;65.50;;;;;;4987854;28;20026;-65
2021/03/22 00:10:58;;;;;;;21.25;3.35;;;5.60;65.40;;;;;;4989994;28;20034;-65
2021/03/22 00:13:25;;;;;;;15.07;3.20;;;5.60;65.50;;;;;;4991878;28;20034;-65
2021/03/22 00:15:53;;;;;;;17.15;3.75;;;5.60;65.50;;;;;;4992600;28;20029;-65
2021/03/22 00:18:23;;;;;;;17.23;2.88;;;5.60;65.60;;;;;;4987066;28;20037;-65
2021/03/22 00:20:49;;;;;;;20.45;3.13;;;5.60;65.50;;;;;;4973461;28;20041;-65
2021/03/22 00:23:16;;;;;;;16.50;2.88;;;5.50;65.30;;;;;;4988346;28;20030;-65
2021/03/22 00:25:42;;;;;;;21.60;3.15;;;5.50;65.90;;;;;;4979034;28;20529;-65
2021/03/22 00:28:09;;;;;;;19.30;2.72;;;5.50;65.40;;;;;;5003063;28;20030;-64
2021/03/22 00:30:38;;;;;;;13.60;3.17;;;5.50;65.40;;;;;;4987284;28;20034;-64
2021/03/22 00:33:06;;;;;;;24.48;3.80;;;5.50;65.50;;;;;;4986822;28;20060;-65
2021/03/22 00:35:32;;;;;;;15.25;2.60;;;5.40;65.40;;;;;;4991712;28;20103;-65
2021/03/22 00:37:58;;;;;;;21.38;3.55;;;5.40;65.40;;;;;;4991980;28;20450;-65
2021/03/22 00:40:27;;;;;;;17.15;2.65;;;5.40;65.30;;;;;;4992880;28;20037;-64
2021/03/22 00:42:53;;;;;;;15.70;3.63;;;5.30;65.50;;;;;;4991879;28;20026;-65
2021/03/22 00:45:20;;;;;;;18.40;2.83;;;5.30;65.50;;;;;;5007099;28;20026;-65
2021/03/22 00:47:47;;;;;;;14.93;2.95;;;5.30;65.50;;;;;;4985392;28;20029;-65
2021/03/22 00:50:21;;;;;;;22.33;2.92;;;5.30;65.60;;;;;;4978244;28;20038;-65
2021/03/22 00:52:46;;;;;;;21.13;2.80;;;5.30;65.60;;;;;;4984186;28;20030;-64
2021/03/22 00:55:12;;;;;;;17.30;3.78;;;5.30;65.60;;;;;;5004993;28;20030;-65
2021/03/22 00:57:38;;;;;;;16.75;3.13;;;5.20;65.50;;;;;;4994812;28;20503;-64
2021/03/22 01:00:06;;;;;;;17.65;3.47;;;5.20;65.60;;;;;;4979258;28;20026;-65
2021/03/22 01:02:32;;;;;;;13.25;2.67;;;5.20;65.70;;;;;;4986371;28;20569;-65
2021/03/22 01:04:58;;;;;;;20.88;3.03;;;5.10;65.70;;;;;;4989732;28;20109;-64
2021/03/22 01:07:23;;;;;;;10.82;2.85;;;5.10;65.80;;;;;;4992838;28;20026;-65
2021/03/22 01:09:49;;;;;;;20.38;3.28;;;5.10;65.80;;;;;;4996514;28;20168;-65
2021/03/22 01:12:15;;;;;;;20.88;3.05;;;5.10;65.90;;;;;;4985114;28;20486;-65
2021/03/22 01:14:40;;;;;;;15.02;3.22;;;5.10;65.90;;;;;;4986739;28;20497;-65
2021/03/22 01:17:06;;;;;;;23.30;3.30;;;5.10;65.80;;;;;;4981952;28;20048;-66
2021/03/22 01:19:32;;;;;;;20.02;3.58;;;5.10;65.80;;;;;;4996245;28;20049;-65
2021/03/22 01:22:00;;;;;;;18.65;2.67;;;5.00;65.80;;;;;;4994845;28;20423;-65
2021/03/22 01:24:31;;;;;;;18.45;2.83;;;5.00;65.80;;;;;;4994616;28;20117;-65
2021/03/22 01:27:06;;;;;;;19.55;2.75;;;5.00;65.70;;;;;;4995448;28;20041;-65
2021/03/22 01:29:35;;;;;;;20.77;3.00;;;5.00;65.80;;;;;;4995331;28;20026;-64
2021/03/22 01:32:04;;;;;;;16.42;2.95;;;5.00;65.90;;;;;;4986883;28;20026;-65
2021/03/22 01:34:30;;;;;;;20.85;3.58;;;5.00;65.90;;;;;;5006296;28;20113;-65
2021/03/22 01:36:57;;;;;;;17.98;3.08;;;5.00;65.90;;;;;;4976620;28;20041;-65
2021/03/22 01:39:28;;;;;;;16.50;2.97;;;4.90;65.90;;;;;;4995350;28;20034;-64
2021/03/22 01:42:00;;;;;;;13.60;3.10;;;5.00;65.90;;;;;;4995702;28;20025;-64
2021/03/22 01:44:33;;;;;;;23.35;3.20;;;5.00;65.90;;;;;;4995108;28;20439;-65
2021/03/22 01:47:18;;;;;;;14.50;3.10;;;5.00;65.90;;;;;;4995111;28;20049;-64
2021/03/22 01:50:00;;;;;;;16.27;2.92;;;5.00;65.90;;;;;;4984148;28;20454;-65
2021/03/22 01:52:27;;;;;;;14.13;2.63;;;5.00;65.90;;;;;;4984183;28;20026;-65
2021/03/22 01:54:54;;;;;;;16.60;3.13;;;5.00;65.90;;;;;;5011877;28;20037;-65
2021/03/22 01:57:32;;;;;;;18.02;3.05;;;5.00;65.90;;;;;;4979083;28;20038;-65
2021/03/22 02:00:17;;;;;;;17.70;3.63;;;4.90;65.90;;;;;;4980540;28;20057;-65
2021/03/22 02:02:45;;;;;;;15.55;3.15;;;4.90;65.80;;;;;;5005949;28;20478;-65
2021/03/22 02:05:14;;;;;;;18.23;3.35;;;4.90;65.80;;;;;;4977030;28;20156;-65
2021/03/22 02:07:40;;;;;;;22.13;3.38;;;4.90;65.80;;;;;;4987185;28;20026;-65
2021/03/22 02:10:08;;;;;;;17.58;3.60;;;4.90;65.90;;;;;;4976691;28;20403;-66
2021/03/22 02:12:35;;;;;;;17.67;3.20;;;4.90;66.00;;;;;;4991157;28;20037;-65
2021/03/22 02:15:01;;;;;;;19.38;3.50;;;4.90;65.90;;;;;;4981751;28;20113;-66
2021/03/22 02:17:42;;;;;;;15.15;3.15;;;4.90;65.90;;;;;;4988516;28;20116;-66
2021/03/22 02:20:19;;;;;;;15.65;3.53;;;4.90;65.90;;;;;;4992380;28;20030;-66
2021/03/22 02:22:51;;;;;;;18.15;2.85;;;4.90;66.40;;;;;;5010296;28;20026;-65
2021/03/22 02:25:46;;;;;;;25.50;3.63;;;4.80;65.80;;;;;;4995102;28;20028;-65
2021/03/22 02:28:30;;;;;;;19.60;3.05;;;4.80;66.10;;;;;;4992194;28;20049;-65
2021/03/22 02:31:11;;;;;;;19.20;3.33;;;4.80;66.00;;;;;;4996069;28;20026;-65
2021/03/22 02:33:48;;;;;;;14.95;2.90;;;4.80;66.10;;;;;;4994432;28;20037;-65
2021/03/22 02:36:18;;;;;;;14.90;3.90;;;4.80;66.00;;;;;;5004961;28;20058;-65
2021/03/22 02:38:52;;;;;;;15.95;2.92;;;4.80;66.10;;;;;;4991463;28;20502;-66
2021/03/22 02:41:26;;;;;;;14.98;2.50;;;4.80;66.10;;;;;;4987342;28;20482;-65
2021/03/22 02:44:06;;;;;;;14.95;3.30;;;4.80;66.10;;;;;;4982996;28;20405;-64
2021/03/22 02:46:33;;;;;;;18.50;3.15;;;4.80;66.00;;;;;;4992480;28;20026;-66
2021/03/22 02:49:01;;;;;;;18.40;3.30;;;4.80;66.00;;;;;;4989905;28;20041;-65
2021/03/22 02:51:57;;;;;;;20.83;3.38;;;4.80;66.00;;;;;;4993675;28;20097;-65
2021/03/22 02:54:48;;;;;;;16.50;3.20;;;4.80;66.00;;;;;;4993352;28;20474;-65
2021/03/22 02:57:42;;;;;;;17.27;3.55;;;4.80;66.00;;;;;;4997950;28;20041;-66
2021/03/22 03:00:24;;;;;;;28.13;3.58;;;4.80;66.10;;;;;;5004729;28;20068;-65
2021/03/22 03:02:53;;;;;;;11.80;2.90;;;4.80;66.00;;;;;;4994671;28;20427;-65
2021/03/22 03:05:23;;;;;;;16.52;3.05;;;4.80;66.00;;;;;;4992886;28;20032;-65
2021/03/22 03:07:49;;;;;;;17.80;3.13;;;4.70;66.00;;;;;;4993104;28;20056;-65
2021/03/22 03:10:17;;;;;;;16.88;2.88;;;4.80;66.10;;;;;;4988552;28;20105;-65
2021/03/22 03:12:43;;;;;;;12.20;2.92;;;4.70;66.10;;;;;;4993425;28;20453;-65
2021/03/22 03:15:11;;;;;;;14.85;3.03;;;4.70;66.10;;;;;;4989386;28;20073;-66
2021/03/22 03:17:37;;;;;;;18.55;3.15;;;4.70;66.00;;;;;;4974602;28;20553;-65
2021/03/22 03:20:07;;;;;;;15.55;2.92;;;4.70;66.10;;;;;;4978365;28;20034;-65
2021/03/22 03:22:33;;;;;;;14.02;2.58;;;4.70;66.20;;;;;;4993939;28;20514;-65
2021/03/22 03:24:58;;;;;;;19.38;3.15;;;4.70;66.20;;;;;;4983815;28;20060;-65
2021/03/22 03:27:24;;;;;;;21.65;3.78;;;4.70;66.20;;;;;;4983154;28;20022;-66
2021/03/22 03:29:50;;;;;;;12.90;2.78;;;4.70;66.20;;;;;;4978340;28;20025;-65
2021/03/22 03:32:19;;;;;;;17.02;3.13;;;4.70;66.20;;;;;;4985683;28;20034;-65
2021/03/22 03:34:46;;;;;;;11.90;2.55;;;4.60;66.10;;;;;;4973512;28;20030;-65
2021/03/22 03:37:12;;;;;;;14.30;3.28;;;4.60;66.10;;;;;;4995955;28;20090;-65
2021/03/22 03:39:38;;;;;;;11.02;2.60;;;4.60;66.20;;;;;;4988123;28;20124;-65
2021/03/22 03:42:06;;;;;;;21.40;3.28;;;4.60;66.30;;;;;;4992809;28;20056;-65
2021/03/22 03:44:32;;;;;;;19.25;3.35;;;4.60;66.30;;;;;;4992121;28;20022;-65
2021/03/22 03:46:57;;;;;;;16.10;3.20;;;4.60;66.20;;;;;;4983186;28;20037;-65
2021/03/22 03:49:23;;;;;;;10.40;2.75;;;4.60;66.20;;;;;;4992431;28;20020;-65
2021/03/22 03:51:49;;;;;;;17.77;3.22;;;4.60;66.30;;;;;;4990112;28;20033;-65
2021/03/22 03:54:14;;;;;;;16.60;2.88;;;4.70;66.30;;;;;;4983655;28;20030;-66
2021/03/22 03:56:40;;;;;;;15.32;2.70;;;4.60;66.30;;;;;;4974910;28;20034;-65
2021/03/22 03:59:07;;;;;;;13.52;2.50;;;4.60;66.30;;;;;;4988380;28;20022;-65
2021/03/22 04:01:33;;;;;;;15.57;2.85;;;4.60;66.20;;;;;;4984308;28;20056;-66
2021/03/22 04:03:59;;;;;;;16.95;2.75;;;4.60;66.30;;;;;;4985474;28;20029;-65
2021/03/22 04:06:31;;;;;;;13.48;2.97;;;4.60;66.20;;;;;;4992722;28;20065;-65
2021/03/22 04:09:00;;;;;;;12.88;2.30;;;4.60;66.30;;;;;;4992404;28;20403;-65
2021/03/22 04:11:30;;;;;;;10.85;2.60;;;4.60;66.20;;;;;;4978211;28;20374;-65
2021/03/22 04:13:57;;;;;;;17.48;3.05;;;4.60;66.30;;;;;;5003700;28;20406;-66
2021/03/22 04:16:25;;;;;;;14.48;3.00;;;4.60;66.30;;;;;;4992810;28;20041;-66
2021/03/22 04:18:51;;;;;;;16.98;2.83;;;4.60;66.40;;;;;;4992790;28;20140;-64
2021/03/22 04:21:24;;;;;;;13.52;2.83;;;4.50;66.30;;;;;;4992890;28;20482;-65
2021/03/22 04:23:51;;;;;;;15.25;2.53;;;4.60;66.40;;;;;;4986457;28;20057;-65
2021/03/22 04:26:17;;;;;;;18.02;2.70;;;4.60;66.40;;;;;;4992102;28;20450;-64
2021/03/22 04:28:43;;;;;;;16.88;3.13;;;4.60;66.40;;;;;;4992285;28;20030;-65
2021/03/22 04:31:14;;;;;;;13.05;2.63;;;4.60;66.40;;;;;;4989028;28;20026;-64
2021/03/22 04:33:41;;;;;;;19.00;3.10;;;4.60;66.40;;;;;;4980332;28;20037;-64
2021/03/22 04:36:07;;;;;;;19.55;2.85;;;4.60;66.30;;;;;;4978213;28;20136;-65
2021/03/22 04:38:33;;;;;;;13.93;2.75;;;4.60;66.30;;;;;;4998142;28;20042;-65
2021/03/22 04:40:59;;;;;;;15.40;2.40;;;4.60;66.30;;;;;;4978456;28;20033;-65
2021/03/22 04:43:25;;;;;;;12.75;2.25;;;4.60;66.30;;;;;;4993019;28;20026;-66
2021/03/22 04:45:50;;;;;;;17.63;3.20;;;4.60;66.30;;;;;;4988789;28;20395;-65
2021/03/22 04:48:16;;;;;;;17.55;2.53;;;4.60;66.30;;;;;;4988334;28;20029;-66
2021/03/22 04:50:43;;;;;;;10.55;2.53;;;4.60;66.20;;;;;;5006057;28;20030;-65
2021/03/22 04:53:08;;;;;;;14.32;2.45;;;4.60;66.70;;;;;;4996631;28;20112;-65
2021/03/22 04:55:34;;;;;;;18.27;3.45;;;4.60;66.20;;;;;;4977892;28;20182;-65
2021/03/22 04:58:00;;;;;;;13.73;2.10;;;4.60;66.30;;;;;;5001328;28;20120;-65
2021/03/22 05:00:41;;;;;;;13.20;2.28;;;4.60;66.30;;;;;;4984646;28;20030;-65
2021/03/22 05:03:08;;;;;;;13.65;2.30;;;4.60;66.20;;;;;;4987291;28;20076;-65
2021/03/22 05:05:35;;;;;;;11.48;2.67;;;4.60;66.30;;;;;;4993732;28;20022;-66
2021/03/22 05:08:03;;;;;;;16.60;2.40;;;4.60;66.20;;;;;;4996116;28;20026;-65
2021/03/22 05:10:35;;;;;;;14.15;2.80;;;4.60;66.20;;;;;;4991656;28;20058;-65
2021/03/22 05:13:03;;;;;;;15.15;2.47;;;4.60;66.10;;;;;;4983341;28;20030;-65
2021/03/22 05:15:29;;;;;;;17.67;3.65;;;4.60;66.10;;;;;;4994850;28;20406;-65
2021/03/22 05:17:55;;;;;;;13.32;3.08;;;4.60;66.10;;;;;;4996163;28;20105;-65
2021/03/22 05:20:28;;;;;;;14.75;2.67;;;4.60;66.10;;;;;;4989078;28;20031;-65
2021/03/22 05:22:53;;;;;;;11.02;2.25;;;4.60;66.10;;;;;;4983961;28;20096;-65
2021/03/22 05:25:20;;;;;;;10.52;2.60;;;4.60;66.10;;;;;;4990324;28;20751;-65
2021/03/22 05:28:01;;;;;;;11.00;2.22;;;4.60;66.20;;;;;;5017219;23;20081;-85
2021/03/22 05:30:28;;;;;;;15.35;2.35;;;4.60;66.20;;;;;;5026247;28;20384;-85
2021/03/22 05:33:02;;;;;;;13.88;2.92;;;4.50;66.00;;;;;;5045767;28;20048;-85
2021/03/22 05:35:29;;;;;;;12.30;2.80;;;4.60;66.20;;;;;;5034119;28;20072;-85
2021/03/22 05:37:56;;;;;;;12.25;2.40;;;4.50;66.00;;;;;;5027021;28;20456;-85
2021/03/22 05:40:21;;;;;;;16.15;2.38;;;4.60;66.10;;;;;;5004765;28;20082;-85
2021/03/22 05:43:04;;;;;;;11.57;1.90;;;4.50;66.10;;;;;;5037758;28;20112;-85
2021/03/22 05:46:07;;;;;;;15.52;2.63;;;4.60;66.30;;;;;;5014823;28;20026;-85
2021/03/22 05:48:58;;;;;;;11.25;2.95;;;4.50;66.10;;;;;;5022428;28;20029;-86
2021/03/22 05:52:01;;;;;;;14.68;2.42;;;4.50;66.00;;;;;;5020118;28;20029;-84
2021/03/22 05:54:42;;;;;;;11.32;2.28;;;4.50;66.00;;;;;;5016135;28;20115;-85
2021/03/22 05:57:52;;;;;;;12.38;2.40;;;4.50;66.10;;;;;;5032588;28;20476;-86
2021/03/22 06:00:40;;;;;;;10.18;2.10;;;4.50;66.10;;;;;;5000187;28;20037;-85
2021/03/22 06:03:17;;;;;;;14.70;2.22;;;4.40;66.00;;;;;;5036162;28;20052;-86
2021/03/22 06:05:48;;;;;;;7.88;2.13;;;4.40;66.00;;;;;;5013503;28;20018;-85
2021/03/22 06:08:39;;;;;;;12.63;1.83;;;4.40;66.00;;;;;;5008246;28;20089;-86
2021/03/22 06:11:26;;;;;;;11.15;2.13;;;4.40;66.30;;;;;;5003579;28;20053;-87
2021/03/22 06:14:00;;;;;;;9.52;2.13;;;4.40;66.20;;;;;;5005313;28;20030;-88
2021/03/22 06:16:38;;;;;;;9.50;1.75;;;4.40;66.10;;;;;;5004581;28;20121;-86
2021/03/22 06:19:08;;;;;;;18.30;2.60;;;4.50;66.30;;;;;;5018807;28;20122;-85
2021/03/22 06:21:36;;;;;;;10.10;1.95;;;4.50;66.30;;;;;;5015120;28;20030;-86
2021/03/22 06:24:13;;;;;;;13.88;2.63;;;4.50;66.10;;;;;;5003252;28;20057;-85
2021/03/22 06:26:44;;;;;;;14.05;7.15;;;4.50;66.10;;;;;;5026716;28;20025;-85
2021/03/22 06:29:22;;;;;;;14.35;2.20;;;4.50;66.10;;;;;;5024222;28;20499;-85
2021/03/22 06:31:50;;;;;;;10.73;2.35;;;4.50;66.10;;;;;;5017822;28;20403;-86
2021/03/22 06:34:20;;;;;;;22.40;2.38;;;4.60;66.10;;;;;;5038801;28;20025;-85
2021/03/22 06:36:46;;;;;;;11.13;1.90;;;4.50;66.10;;;;;;5026152;28;20387;-86
2021/03/22 06:39:13;;;;;;;12.48;2.40;;;4.50;66.00;;;;;;5008978;28;20030;-85
2021/03/22 06:41:51;;;;;;;12.93;2.17;;;4.60;66.10;;;;;;5021185;28;20029;-86
2021/03/22 06:44:34;;;;;;;9.10;1.70;;;4.60;66.10;;;;;;5038415;28;20304;-86
2021/03/22 06:47:03;;;;;;;11.80;1.88;;;4.60;65.90;;;;;;5019246;28;20076;-85
2021/03/22 06:49:32;;;;;;;12.85;2.13;;;4.60;65.90;;;;;;5018279;28;20025;-86
2021/03/22 06:52:03;;;;;;;7.97;1.75;;;4.70;66.00;;;;;;5013238;28;20034;-85
2021/03/22 06:54:39;;;;;;;5.95;1.90;;;4.70;66.00;;;;;;5002338;28;20164;-85
2021/03/22 06:57:11;;;;;;;14.20;2.10;;;4.70;66.00;;;;;;5004885;28;20121;-85
2021/03/22 06:59:37;;;;;;;5.57;1.90;;;4.70;66.00;;;;;;5028556;28;20378;-84
2021/03/22 07:02:22;;;;;;;8.98;1.98;;;4.80;66.00;;;;;;5013276;28;20450;-84
2021/03/22 07:04:48;;;;;;;8.60;1.80;;;4.80;65.80;;;;;;5016554;28;20607;-84
2021/03/22 07:07:20;;;;;;;6.80;1.80;;;4.80;65.80;;;;;;5018273;28;20053;-85
2021/03/22 07:09:52;;;;;;;10.52;2.30;;;4.80;65.90;;;;;;5002593;28;20077;-85
2021/03/22 07:12:24;;;;;;;7.78;2.17;;;4.90;65.80;;;;;;5018004;28;20033;-84
2021/03/22 07:14:50;;;;;;;11.85;2.45;;;4.90;65.90;;;;;;5008331;28;20244;-85
2021/03/22 07:17:22;;;;;;;12.80;2.08;;;4.90;65.90;;;;;;5003082;28;20030;-84
2021/03/22 07:20:12;;;;;;;13.20;2.05;;;4.90;65.90;;;;;;5000234;28;20484;-85
2021/03/22 07:22:38;;;;;;;10.65;1.92;;;4.90;65.80;;;;;;5004491;28;20048;-85
2021/03/22 07:25:34;;;;;;;8.70;1.95;;;5.00;65.70;;;;;;5015526;28;20034;-85
2021/03/22 07:28:13;;;;;;;13.95;2.40;;;4.90;65.70;;;;;;5015773;28;20399;-85
2021/03/22 07:30:42;;;;;;;7.97;1.98;;;4.90;65.80;;;;;;5011631;28;20036;-85
2021/03/22 07:33:38;;;;;;;15.32;2.42;;;4.90;65.80;;;;;;5033907;28;20558;-85
2021/03/22 07:36:29;;;;;;;8.80;1.92;;;4.90;65.80;;;;;;5009512;28;20034;-85
2021/03/22 07:39:00;;;;;;;12.20;1.75;;;4.90;65.90;;;;;;5033957;28;20025;-85
2021/03/22 07:41:44;;;;;;;14.80;2.20;;;5.00;65.90;;;;;;5004178;28;20111;-85
2021/03/22 07:44:13;;;;;;;11.13;2.33;;;5.00;66.00;;;;;;5038598;28;20021;-85
2021/03/22 07:47:06;;;;;;;11.88;2.08;;;5.00;65.90;;;;;;5040817;28;20035;-85
2021/03/22 07:49:50;;;;;;;12.85;2.47;;;5.00;65.90;;;;;;5041301;28;20064;-85
2021/03/22 07:52:15;;;;;;;15.43;2.30;;;5.00;65.90;;;;;;5007337;28;20021;-86
2021/03/22 07:54:49;;;;;;;11.63;2.40;;;5.00;65.90;;;;;;5015306;28;20040;-85
2021/03/22 07:57:33;;;;;;;16.40;2.40;;;5.10;66.00;;;;;;5018161;28;20491;-86
2021/03/22 08:00:09;;;;;;;11.32;2.13;;;5.10;65.90;;;;;;5014202;28;20017;-85
2021/03/22 08:02:44;;;;;;;13.10;2.83;;;5.20;65.90;;;;;;5027335;28;20108;-86
2021/03/22 08:05:38;;;;;;;9.65;2.03;;;5.20;66.00;;;;;;5013405;28;20029;-86
2021/03/22 08:08:21;;;;;;;7.40;1.90;;;5.30;65.80;;;;;;5027275;28;20033;-84
2021/03/22 08:10:47;;;;;;;16.60;2.03;;;5.30;65.70;;;;;;5024621;28;20040;-85
2021/03/22 08:13:43;;;;;;;12.70;2.13;;;5.30;65.70;;;;;;5001401;28;20563;-85
2021/03/22 08:16:14;;;;;;;6.05;1.65;;;5.30;65.80;;;;;;5006932;28;20076;-85
2021/03/22 08:18:53;;;;;;;11.70;2.25;;;5.30;65.80;;;;;;5018436;28;20029;-85
2021/03/22 08:21:25;;;;;;;8.38;2.13;;;5.40;65.80;;;;;;5032918;28;20026;-85
2021/03/22 08:23:54;;;;;;;8.07;1.77;;;5.40;65.90;;;;;;5001444;28;20037;-85
2021/03/22 08:26:31;;;;;;;10.02;1.80;;;5.40;65.90;;;;;;5013465;28;20056;-85
2021/03/22 08:29:11;;;;;;;10.48;1.85;;;5.40;66.00;;;;;;5006067;28;20032;-85
2021/03/22 08:31:49;;;;;;;9.82;1.77;;;5.40;66.00;;;;;;5019023;28;20051;-85
2021/03/22 08:34:30;;;;;;;11.23;2.20;;;5.50;66.00;;;;;;5016050;28;20040;-86
2021/03/22 08:37:07;;;;;;;11.52;2.10;;;5.50;65.90;;;;;;5018902;28;20037;-85
2021/03/22 08:40:06;;;;;;;10.93;1.95;;;5.70;65.80;;;;;;5018202;28;20036;-85
2021/03/22 08:42:56;;;;;;;8.93;1.90;;;5.70;65.70;;;;;;5013024;28;20087;-85
2021/03/22 08:45:22;;;;;;;8.13;2.20;;;5.90;65.70;;;;;;5012859;28;20053;-85
2021/03/22 08:48:02;;;;;;;12.30;2.22;;;5.90;65.40;;;;;;5007653;28;20045;-85
2021/03/22 08:50:33;;;;;;;11.65;2.30;;;5.90;65.40;;;;;;5014536;28;20350;-86
2021/03/22 08:53:09;;;;;;;8.35;1.90;;;5.90;65.50;;;;;;5009307;28;20488;-83
2021/03/22 08:55:41;;;;;;;11.20;2.03;;;5.90;65.50;;;;;;5023010;28;20073;-85
2021/03/22 08:58:28;;;;;;;11.80;2.17;;;6.00;65.40;;;;;;5001021;28;20021;-85
2021/03/22 09:01:15;;;;;;;14.82;2.78;;;6.00;65.30;;;;;;5011112;28;20049;-85
2021/03/22 09:03:43;;;;;;;7.72;2.10;;;6.00;65.30;;;;;;5001415;28;20065;-84
2021/03/22 09:06:15;;;;;;;12.45;2.35;;;6.00;65.20;;;;;;4999415;28;20118;-85
2021/03/22 09:09:05;;;;;;;7.80;1.67;;;5.90;65.30;;;;;;5018619;28;20026;-85
2021/03/22 09:11:47;;;;;;;7.03;1.65;;;5.80;65.70;;;;;;5016156;28;20135;-85
2021/03/22 09:14:16;;;;;;;;;;;5.80;65.90;;;;;;5026507;28;20124;-87
2021/03/22 09:16:45;;;;;;;6.50;2.00;;;5.70;65.80;;;;;;5016721;28;19980;-84
2021/03/22 09:19:11;;;;;;;7.70;1.80;;;5.70;66.30;;;;;;5018354;28;20038;-85
2021/03/22 09:21:38;;;;;;;7.28;2.38;;;5.70;66.50;;;;;;4999267;28;20068;-84
2021/03/22 09:24:24;;;;;;;7.82;2.60;;;5.80;66.70;;;;;;5016417;28;20025;-86
2021/03/22 09:27:00;;;;;;;6.05;2.00;;;6.00;66.70;;;;;;5024876;28;20098;-86
2021/03/22 09:29:31;;;;;;;7.25;1.58;;;6.10;66.60;;;;;;5042177;28;20096;-86
2021/03/22 09:31:59;;;;;;;17.77;8.52;;;6.20;66.70;;;;;;5039715;28;20041;-84
2021/03/22 09:34:36;;;;;;;5.63;1.60;;;6.30;67.10;;;;;;5020535;28;20036;-84
2021/03/22 09:37:40;;;;;;;7.50;1.88;;;6.50;66.80;;;;;;5011793;28;20077;-84
2021/03/22 09:40:32;;;;;;;7.00;1.92;;;6.70;66.50;;;;;;5016010;28;20033;-85
2021/03/22 09:43:12;;;;;;;6.13;1.42;;;6.90;66.20;;;;;;5022553;28;20393;-86
2021/03/22 09:46:05;;;;;;;3.13;1.45;;;6.90;65.90;;;;;;5019804;28;20029;-87
2021/03/22 09:48:36;;;;;;;7.07;1.70;;;7.00;65.70;;;;;;5010128;28;20044;-87
2021/03/22 09:51:05;;;;;;;10.30;1.83;;;7.00;65.50;;;;;;5006605;28;20035;-86
2021/03/22 09:53:52;;;;;;;8.02;1.80;;;7.10;65.50;;;;;;5015833;28;20033;-87
2021/03/22 09:56:50;;;;;;;8.30;1.60;;;7.20;65.40;;;;;;5021597;28;20025;-85
2021/03/22 09:59:37;;;;;;;4.93;1.48;;;7.30;65.70;;;;;;4997595;28;20044;-86
2021/03/22 10:02:28;;;;;;;7.72;1.67;;;7.30;65.20;;;;;;5025496;28;20018;-87
2021/03/22 10:05:14;;;;;;;9.63;2.00;;;7.30;65.10;;;;;;5011071;28;20029;-86
2021/03/22 10:07:40;;;;;;;7.32;1.73;;;7.30;65.10;;;;;;5013531;28;20033;-86
2021/03/22 10:10:32;;;;;;;5.35;1.40;;;7.30;64.90;;;;;;5037223;28;20026;-86
2021/03/22 10:13:09;;;;;;;6.47;1.33;;;7.40;64.80;;;;;;5034450;28;20026;-86
2021/03/22 10:15:46;;;;;;;5.90;1.75;;;7.50;64.50;;;;;;5020999;28;20034;-86
2021/03/22 10:18:18;;;;;;;6.10;1.67;;;7.60;64.40;;;;;;5019399;28;20033;-85
2021/03/22 10:20:46;;;;;;;6.10;1.63;;;7.60;64.50;;;;;;5018183;28;20649;-86
2021/03/22 10:23:32;;;;;;;4.35;1.42;;;7.70;64.00;;;;;;5018817;28;20040;-85
2021/03/22 10:26:27;;;;;;;6.47;1.30;;;7.70;63.80;;;;;;5020405;28;20163;-84
2021/03/22 10:29:22;;;;;;;7.20;1.88;;;7.70;63.90;;;;;;5013241;28;20040;-85
2021/03/22 10:31:49;;;;;;;70.60;35.78;;;7.60;63.60;;;;;;5014516;28;20030;-85
2021/03/22 10:34:38;;;;;;;5.47;2.45;;;7.60;64.00;;;;;;5015019;28;20053;-87
2021/03/22 10:37:08;;;;;;;6.75;2.05;;;7.60;64.00;;;;;;5007243;28;20133;-85
2021/03/22 10:39:41;;;;;;;4.70;1.80;;;7.50;63.80;;;;;;5013531;28;20052;-86
2021/03/22 10:42:25;;;;;;;6.55;1.48;;;7.50;63.80;;;;;;5013942;28;20028;-86
2021/03/22 10:44:51;;;;;;;4.93;1.80;;;7.40;63.90;;;;;;5002270;28;20762;-86
2021/03/22 10:47:19;;;;;;;6.78;1.85;;;7.40;64.00;;;;;;5000400;28;20021;-87
2021/03/22 10:49:45;;;;;;;3.95;1.50;;;7.40;64.00;;;;;;5014979;28;20045;-86
2021/03/22 10:52:31;;;;;;;10.27;1.95;;;7.30;64.10;;;;;;5008375;28;20117;-86
2021/03/22 10:54:57;;;;;;;7.43;1.63;;;7.30;64.10;;;;;;5010744;28;20041;-85
2021/03/22 10:57:37;;;;;;;3.53;1.50;;;7.30;64.00;;;;;;5012714;28;20121;-85
2021/03/22 11:00:32;;;;;;;6.45;1.80;;;7.30;63.90;;;;;;5017413;28;20029;-86
2021/03/22 11:03:02;;;;;;;7.60;1.80;;;7.40;64.00;;;;;;5013454;28;20040;-86
2021/03/22 11:05:37;;;;;;;7.03;1.75;;;7.50;63.90;;;;;;5019560;28;20022;-87
2021/03/22 11:08:14;;;;;;;15.25;6.72;;;7.60;63.90;;;;;;5014081;28;20052;-86
2021/03/22 11:10:40;;;;;;;9.52;2.10;;;7.70;63.60;;;;;;5010910;28;20080;-86
2021/03/22 11:13:09;;;;;;;8.23;2.08;;;7.70;62.90;;;;;;5016114;28;20022;-87
2021/03/22 11:15:38;;;;;;;10.15;2.28;;;7.60;62.50;;;;;;5005821;28;20068;-87
2021/03/22 11:18:31;;;;;;;11.23;2.20;;;7.60;62.90;;;;;;5000447;28;20109;-88
2021/03/22 11:20:59;;;;;;;6.63;2.20;;;7.50;62.90;;;;;;5017497;28;20025;-88
2021/03/22 11:24:22;;;;;;;10.93;2.63;;;7.30;63.10;;;;;;5009467;28;20022;-87
2021/03/22 11:27:02;;;;;;;9.52;2.60;;;7.20;63.90;;;;;;5009179;28;20208;-87
2021/03/22 11:29:28;;;;;;;5.97;1.52;;;7.30;64.20;;;;;;5011216;28;20021;-87
2021/03/22 11:32:04;;;;;;;3.50;1.63;;;7.40;64.20;;;;;;5014424;28;20022;-86
2021/03/22 11:34:33;;;;;;;3.15;1.50;;;7.50;63.90;;;;;;5050953;28;20086;-86
2021/03/22 11:37:21;;;;;;;2.33;1.15;;;7.70;63.70;;;;;;5040101;28;20031;-87
2021/03/22 11:39:57;;;;;;;6.38;1.90;;;7.90;63.40;;;;;;5001915;28;20036;-86
2021/03/22 11:42:36;;;;;;;3.67;1.38;;;8.10;63.10;;;;;;5036888;28;20407;-86
2021/03/22 11:45:44;;;;;;;3.67;1.50;;;8.30;63.00;;;;;;5018961;28;20514;-87
2021/03/22 11:48:21;;;;;;;3.45;1.42;;;8.50;63.10;;;;;;5030664;28;20021;-86
2021/03/22 11:51:10;;;;;;;3.90;1.27;;;8.90;62.90;;;;;;5011833;28;20037;-87
2021/03/22 11:53:58;;;;;;;2.67;1.00;;;9.00;62.50;;;;;;5024603;28;20034;-87
2021/03/22 11:56:32;;;;;;;2.03;0.90;;;9.10;62.20;;;;;;4999927;28;20183;-87
2021/03/22 11:59:20;;;;;;;2.28;1.00;;;9.00;61.60;;;;;;5019302;28;20029;-87
2021/03/22 12:02:13;;;;;;;1.95;1.10;;;8.90;61.40;;;;;;5008561;28;20026;-86
2021/03/22 12:07:11;;;;;;;4.10;1.17;;;8.70;61.70;;;;;;5055544;28;20067;-66
2021/03/22 12:09:41;;;;;;;5.60;1.88;;;8.60;61.70;;;;;;5031193;28;20018;-67
2021/03/22 12:12:13;;;;;;;3.25;1.38;;;8.60;61.90;;;;;;5028822;28;20075;-66
2021/03/22 12:14:39;;;;;;;80.38;37.00;;;8.50;62.10;;;;;;5024980;28;20033;-66
2021/03/22 12:17:16;;;;;;;6.63;2.45;;;8.50;62.50;;;;;;5033165;28;20500;-66
2021/03/22 12:19:42;;;;;;;6.95;1.60;;;8.60;62.40;;;;;;5032600;28;20032;-66
2021/03/22 12:22:19;;;;;;;5.38;1.50;;;8.60;62.00;;;;;;5033088;28;20029;-67
2021/03/22 12:24:45;;;;;;;4.50;1.40;;;8.50;61.70;;;;;;5031994;28;20388;-67
2021/03/22 12:27:18;;;;;;;8.98;1.70;;;8.40;62.20;;;;;;5033213;28;20029;-66
2021/03/22 12:29:44;;;;;;;5.28;1.70;;;8.40;61.80;;;;;;5032793;28;20028;-66
2021/03/22 12:32:24;;;;;;;5.63;1.40;;;8.30;61.70;;;;;;5032972;28;20021;-67
2021/03/22 12:34:50;;;;;;;5.55;1.50;;;8.20;62.00;;;;;;5031576;28;20136;-66
2021/03/22 12:37:32;;;;;;;7.13;1.70;;;8.30;61.90;;;;;;5032821;28;20112;-65
2021/03/22 12:39:59;;;;;;;3.97;1.50;;;8.30;61.80;;;;;;5033113;28;20120;-67
2021/03/22 12:42:27;;;;;;;4.80;1.50;;;8.40;61.90;;;;;;5032897;28;20035;-66
2021/03/22 12:44:53;;;;;;;3.25;1.25;;;8.50;61.70;;;;;;5032297;28;20029;-66
2021/03/22 12:47:26;;;;;;;3.03;1.40;;;8.60;61.80;;;;;;5032857;28;20029;-65
2021/03/22 12:49:52;;;;;;;4.80;1.33;;;8.60;61.60;;;;;;5032366;28;20087;-66
2021/03/22 12:52:18;;;;;;;5.05;1.60;;;8.70;61.60;;;;;;5032913;28;20063;-66
2021/03/22 12:54:44;;;;;;;3.55;1.65;;;8.60;61.50;;;;;;5032052;28;20021;-66
2021/03/22 12:57:20;;;;;;;6.10;1.95;;;8.60;61.60;;;;;;5032985;28;20021;-65
2021/03/22 12:59:46;;;;;;;4.68;1.70;;;8.60;61.60;;;;;;5033689;28;20412;-66
2021/03/22 13:02:17;;;;;;;4.70;1.58;;;8.50;61.30;;;;;;5036143;28;20043;-67
2021/03/22 13:04:43;;;;;;;4.90;1.95;;;8.40;61.60;;;;;;5034936;28;20053;-66
2021/03/22 13:07:09;;;;;;;4.05;1.70;;;8.40;61.40;;;;;;5036246;28;20507;-67
2021/03/22 13:09:39;;;;;;;7.75;1.60;;;8.30;61.60;;;;;;5036182;28;20477;-67
2021/03/22 13:12:09;;;;;;;8.70;1.90;;;8.30;61.60;;;;;;5036363;28;20047;-67
2021/03/22 13:14:35;;;;;;;4.75;1.60;;;8.20;61.60;;;;;;5053293;28;20036;-66
2021/03/22 13:17:01;;;;;;;3.97;1.52;;;8.30;61.60;;;;;;5036185;28;20037;-66
2021/03/22 13:19:26;;;;;;;4.75;1.63;;;8.30;61.30;;;;;;5035820;28;20032;-67
2021/03/22 13:21:52;;;;;;;4.63;1.70;;;8.40;61.30;;;;;;5035886;28;20029;-66
2021/03/22 13:24:21;;;;;;;3.60;1.50;;;8.30;61.10;;;;;;5035162;28;20033;-67
2021/03/22 13:26:47;;;;;;;7.90;2.90;;;8.40;61.00;;;;;;5036220;28;20412;-65